createdAt,value
2022-08-18T00:00:57.633Z,11.43
2022-08-18T00:03:14.263Z,12.32
2022-08-18T00:05:30.752Z,13.15
2022-08-18T00:07:34.182Z,10.57
2022-08-18T00:09:38.599Z,11.45
2022-08-18T00:11:43.698Z,9.68
2022-08-18T00:13:46.036Z,9.63
2022-08-18T00:15:48.881Z,8.18
2022-08-18T00:17:51.872Z,10.20
2022-08-18T00:19:54.119Z,8.35
2022-08-18T00:21:56.562Z,10.38
2022-08-18T00:23:58.871Z,14.90
2022-08-18T00:26:06.542Z,10.82
2022-08-18T00:28:09.158Z,9.15
2022-08-18T00:30:18.569Z,10.45
2022-08-18T00:32:25.394Z,9.77
2022-08-18T00:34:27.519Z,9.60
2022-08-18T00:36:35.612Z,10.68
2022-08-18T00:38:40.519Z,9.10
2022-08-18T00:40:46.779Z,10.15
2022-08-18T00:42:55.715Z,9.77
2022-08-18T00:45:03.263Z,10.50
2022-08-18T00:47:05.611Z,9.70
2022-08-18T00:49:07.777Z,9.10
2022-08-18T00:51:23.758Z,10.02
2022-08-18T00:53:36.611Z,10.30
2022-08-18T00:55:41.832Z,12.32
2022-08-18T00:58:06.682Z,8.90
2022-08-18T01:00:13.225Z,12.15
2022-08-18T01:02:20.641Z,11.25
2022-08-18T01:04:37.331Z,10.93
2022-08-18T01:06:59.094Z,10.60
2022-08-18T01:09:03.523Z,9.25
2022-08-18T01:11:05.778Z,9.00
2022-08-18T01:13:14.453Z,11.13
2022-08-18T01:15:29.443Z,11.65
2022-08-18T01:17:50.876Z,10.73
2022-08-18T01:20:11.957Z,10.85
2022-08-18T01:22:36.225Z,9.43
2022-08-18T01:24:57.283Z,10.07
2022-08-18T01:27:00.840Z,9.27
2022-08-18T01:29:11.823Z,11.45
2022-08-18T01:31:39.131Z,10.05
2022-08-18T01:33:44.215Z,9.43
2022-08-18T01:35:49.935Z,10.77
2022-08-18T01:37:53.143Z,11.13
2022-08-18T01:41:25.258Z,10.05
2022-08-18T01:42:18.937Z,9.50
2022-08-18T01:44:21.468Z,10.40
2022-08-18T01:46:27.811Z,10.20
2022-08-18T01:48:33.155Z,11.30
2022-08-18T01:50:36.694Z,9.25
2022-08-18T01:52:39.697Z,9.75
2022-08-18T01:54:43.008Z,9.73
2022-08-18T01:56:48.467Z,12.40
2022-08-18T01:58:51.044Z,10.05
2022-08-18T02:01:02.255Z,11.00
2022-08-18T02:03:08.985Z,9.65
2022-08-18T02:05:23.930Z,9.73
2022-08-18T02:07:27.957Z,12.88
2022-08-18T02:09:41.233Z,9.93
2022-08-18T02:11:43.845Z,10.23
2022-08-18T02:13:46.127Z,9.90
2022-08-18T02:15:48.345Z,13.82
2022-08-18T02:17:51.235Z,11.93
2022-08-18T02:19:53.510Z,15.57
2022-08-18T02:21:55.540Z,12.82
2022-08-18T02:23:57.596Z,13.18
2022-08-18T02:25:59.713Z,9.90
2022-08-18T02:28:02.151Z,12.75
2022-08-18T02:30:08.362Z,11.23
2022-08-18T02:32:10.927Z,10.23
2022-08-18T02:34:12.961Z,10.18
2022-08-18T02:36:15.658Z,10.57
2022-08-18T02:38:17.793Z,11.40
2022-08-18T02:40:20.004Z,13.45
2022-08-18T02:42:22.477Z,10.40
2022-08-18T02:44:24.695Z,9.18
2022-08-18T02:46:29.307Z,12.05
2022-08-18T02:48:35.982Z,10.85
2022-08-18T02:50:46.205Z,9.18
2022-08-18T02:52:49.002Z,9.80
2022-08-18T02:54:54.012Z,10.50
2022-08-18T02:56:57.496Z,10.73
2022-08-18T02:59:04.212Z,11.57
2022-08-18T03:01:06.489Z,13.40
2022-08-18T03:03:08.693Z,9.80
2022-08-18T03:05:14.521Z,10.75
2022-08-18T03:07:17.924Z,10.55
2022-08-18T03:09:20.398Z,12.35
2022-08-18T03:11:26.480Z,9.90
2022-08-18T03:13:29.677Z,9.65
2022-08-18T03:15:32.505Z,9.52
2022-08-18T03:17:38.093Z,9.10
2022-08-18T03:19:47.792Z,9.90
2022-08-18T03:21:50.057Z,8.82
2022-08-18T03:24:00.607Z,8.55
2022-08-18T03:26:03.761Z,8.55
2022-08-18T03:28:07.198Z,10.85
2022-08-18T03:30:11.315Z,11.98
2022-08-18T03:32:15.790Z,10.40
2022-08-18T03:34:20.991Z,9.75
2022-08-18T03:36:26.562Z,10.15
2022-08-18T03:38:28.708Z,9.82
2022-08-18T03:40:31.108Z,9.50
2022-08-18T03:42:35.337Z,8.75
2022-08-18T03:44:37.586Z,8.98
2022-08-18T03:46:42.454Z,10.07
2022-08-18T03:48:47.506Z,11.88
2022-08-18T03:50:50.389Z,9.27
2022-08-18T03:52:53.052Z,9.77
2022-08-18T03:54:55.121Z,13.25
2022-08-18T03:56:57.080Z,13.02
2022-08-18T03:59:05.129Z,11.45
2022-08-18T04:01:08.461Z,8.85
2022-08-18T04:03:11.565Z,11.48
2022-08-18T04:05:14.841Z,9.48
2022-08-18T04:07:17.776Z,10.60
2022-08-18T04:09:20.767Z,11.23
2022-08-18T04:11:24.002Z,14.95
2022-08-18T04:13:26.084Z,13.32
2022-08-18T04:15:31.134Z,10.93
2022-08-18T04:17:33.320Z,14.13
2022-08-18T04:19:36.000Z,11.20
2022-08-18T04:21:39.922Z,11.73
2022-08-18T04:23:43.590Z,12.07
2022-08-18T04:25:46.328Z,16.20
2022-08-18T04:27:48.631Z,13.20
2022-08-18T04:29:52.173Z,13.60
2022-08-18T04:31:55.243Z,10.35
2022-08-18T04:33:59.743Z,13.10
2022-08-18T04:36:11.602Z,11.90
2022-08-18T04:38:14.453Z,12.23
2022-08-18T04:40:19.215Z,12.20
2022-08-18T04:42:23.592Z,10.40
2022-08-18T04:44:28.884Z,13.13
2022-08-18T04:46:36.615Z,11.05
2022-08-18T04:48:45.590Z,10.82
2022-08-18T04:50:49.071Z,15.73
2022-08-18T04:53:09.525Z,11.82
2022-08-18T04:55:12.418Z,12.07
2022-08-18T04:57:18.367Z,8.85
2022-08-18T04:59:20.701Z,8.75
2022-08-18T05:01:27.223Z,11.95
2022-08-18T05:03:29.397Z,11.07
2022-08-18T05:05:32.565Z,13.57
2022-08-18T05:07:34.762Z,10.70
2022-08-18T05:09:41.455Z,12.50
2022-08-18T05:11:44.656Z,14.77
2022-08-18T05:13:46.985Z,13.60
2022-08-18T05:16:18.014Z,11.45
2022-08-18T05:18:24.528Z,10.82
2022-08-18T05:20:29.002Z,12.02
2022-08-18T05:22:40.046Z,10.57
2022-08-18T05:24:42.700Z,11.00
2022-08-18T05:26:45.735Z,12.70
2022-08-18T05:28:49.686Z,12.45
2022-08-18T05:31:13.887Z,14.70
2022-08-18T05:33:17.253Z,14.63
2022-08-18T05:35:36.392Z,13.52
2022-08-18T05:37:58.354Z,13.35
2022-08-18T05:40:07.447Z,10.60
2022-08-18T05:42:17.971Z,9.13
2022-08-18T05:44:29.626Z,9.25
2022-08-18T05:46:40.299Z,10.63
2022-08-18T05:48:43.779Z,9.57
2022-08-18T05:50:46.168Z,9.82
2022-08-18T05:53:22.744Z,11.20
2022-08-18T05:55:55.770Z,10.55
2022-08-18T05:58:12.998Z,9.75
2022-08-18T06:00:15.289Z,9.18
2022-08-18T06:02:35.594Z,10.32
2022-08-18T06:04:47.880Z,10.80
2022-08-18T06:06:51.757Z,9.63
2022-08-18T06:09:17.749Z,11.57
2022-08-18T06:11:22.395Z,11.88
2022-08-18T06:13:25.292Z,9.40
2022-08-18T06:15:36.357Z,8.68
2022-08-18T06:18:06.676Z,10.55
2022-08-18T06:20:26.980Z,9.00
2022-08-18T06:22:36.459Z,14.25
2022-08-18T06:25:24.763Z,9.57
2022-08-18T06:27:32.980Z,10.52
2022-08-18T06:30:05.525Z,9.40
2022-08-18T06:32:34.465Z,10.10
2022-08-18T06:34:51.877Z,10.40
2022-08-18T06:37:10.874Z,11.00
2022-08-18T06:39:48.240Z,14.07
2022-08-18T06:41:51.615Z,9.98
2022-08-18T06:44:06.832Z,10.70
2022-08-18T06:46:34.654Z,10.57
2022-08-18T06:48:53.865Z,9.82
2022-08-18T06:51:03.592Z,10.80
2022-08-18T06:53:27.282Z,9.48
2022-08-18T06:55:48.621Z,7.65
2022-08-18T06:58:00.160Z,9.85
2022-08-18T07:00:18.297Z,10.20
2022-08-18T07:02:35.790Z,9.52
2022-08-18T07:04:40.406Z,8.85
2022-08-18T07:06:43.906Z,12.27
2022-08-18T07:08:49.386Z,11.25
2022-08-18T07:10:53.393Z,8.88
2022-08-18T07:13:36.938Z,11.60
2022-08-18T07:15:39.680Z,9.48
2022-08-18T07:17:49.336Z,8.40
2022-08-18T07:20:09.214Z,9.27
2022-08-18T07:22:18.135Z,10.35
2022-08-18T07:24:38.839Z,8.77
2022-08-18T07:27:04.888Z,8.80
2022-08-18T07:29:15.754Z,8.25
2022-08-18T07:31:31.070Z,8.32
2022-08-18T07:33:33.758Z,10.10
2022-08-18T07:35:56.676Z,9.25
2022-08-18T07:38:38.684Z,8.27
2022-08-18T07:40:57.901Z,9.38
2022-08-18T07:43:01.031Z,10.93
2022-08-18T07:45:19.857Z,8.00
2022-08-18T07:47:35.175Z,10.43
2022-08-18T07:49:46.035Z,8.35
2022-08-18T07:52:36.287Z,8.23
2022-08-18T07:54:51.235Z,9.80
2022-08-18T07:57:22.807Z,8.88
2022-08-18T08:00:00.265Z,8.05
2022-08-18T08:02:22.170Z,9.40
2022-08-18T08:04:50.729Z,8.93
2022-08-18T08:07:26.484Z,9.07
2022-08-18T08:09:51.631Z,8.15
2022-08-18T08:11:59.879Z,9.65
2022-08-18T08:14:39.685Z,8.63
2022-08-18T08:16:49.613Z,7.70
2022-08-18T08:19:12.652Z,7.25
2022-08-18T08:21:19.167Z,8.15
2022-08-18T08:23:27.709Z,12.27
2022-08-18T08:25:51.772Z,9.35
2022-08-18T08:28:03.483Z,7.60
2022-08-18T08:30:12.092Z,7.40
2022-08-18T08:32:32.719Z,6.93
2022-08-18T08:34:46.118Z,7.38
2022-08-18T08:36:54.225Z,7.45
2022-08-18T08:39:12.792Z,7.22
2022-08-18T08:41:47.165Z,6.95
2022-08-18T08:44:06.536Z,7.13
2022-08-18T08:46:11.517Z,7.25
2022-08-18T08:48:21.166Z,6.85
2022-08-18T08:50:30.282Z,7.00
2022-08-18T08:52:46.461Z,8.25
2022-08-18T08:54:57.610Z,7.20
2022-08-18T08:57:01.590Z,7.63
2022-08-18T08:59:09.222Z,7.22
2022-08-18T09:01:23.306Z,7.25
2022-08-18T09:03:33.156Z,6.93
2022-08-18T09:05:56.627Z,8.95
2022-08-18T09:08:21.156Z,10.20
2022-08-18T09:10:40.258Z,6.72
2022-08-18T09:12:58.527Z,7.03
2022-08-18T09:15:17.542Z,6.80
2022-08-18T09:17:45.897Z,7.00
2022-08-18T09:20:03.344Z,6.78
2022-08-18T09:22:33.855Z,6.82
2022-08-18T09:24:57.590Z,7.65
2022-08-18T09:27:02.919Z,6.28
2022-08-18T09:29:22.042Z,6.40
2022-08-18T09:31:25.288Z,6.03
2022-08-18T09:33:49.431Z,6.75
2022-08-18T09:35:58.975Z,8.48
2022-08-18T09:38:29.127Z,6.47
2022-08-18T09:43:26.478Z,6.03
2022-08-18T09:45:33.691Z,6.10
2022-08-18T09:47:39.292Z,7.72
2022-08-18T09:49:53.652Z,7.72
2022-08-18T09:52:51.372Z,7.82
2022-08-18T09:55:09.099Z,7.15
2022-08-18T09:57:19.666Z,6.95
2022-08-18T09:59:36.825Z,7.70
2022-08-18T10:01:41.891Z,6.47
2022-08-18T10:03:45.083Z,6.47
2022-08-18T10:06:05.538Z,6.47
2022-08-18T10:08:21.590Z,6.80
2022-08-18T10:11:00.785Z,7.10
2022-08-18T10:16:13.925Z,8.18
2022-08-18T10:18:48.408Z,7.20
2022-08-18T10:21:01.147Z,6.05
2022-08-18T10:23:07.281Z,6.22
2022-08-18T10:27:46.060Z,6.15
2022-08-18T10:29:53.823Z,7.47
2022-08-18T10:32:01.843Z,6.97
2022-08-18T10:34:17.107Z,5.47
2022-08-18T10:36:58.982Z,8.80
2022-08-18T10:39:06.730Z,7.35
2022-08-18T10:41:19.842Z,6.32
2022-08-18T10:46:25.501Z,7.03
2022-08-18T10:48:33.535Z,6.13
2022-08-18T10:50:51.606Z,6.70
2022-08-18T10:56:05.831Z,6.28
2022-08-18T10:58:28.608Z,7.72
2022-08-18T11:00:39.859Z,6.97
2022-08-18T11:03:40.101Z,6.57
2022-08-18T11:05:31.965Z,7.15
2022-08-18T11:07:35.910Z,6.70
2022-08-18T11:09:51.004Z,7.28
2022-08-18T11:12:03.260Z,7.90
2022-08-18T11:14:23.938Z,7.97
2022-08-18T11:16:50.613Z,5.80
2022-08-18T11:19:09.847Z,6.63
2022-08-18T11:21:30.995Z,6.15
2022-08-18T11:23:33.205Z,7.10
2022-08-18T11:25:38.610Z,8.18
2022-08-18T11:27:46.933Z,6.68
2022-08-18T11:29:51.696Z,6.25
2022-08-18T11:32:03.849Z,7.65
2022-08-18T11:34:06.924Z,7.43
2022-08-18T11:36:09.521Z,5.88
2022-08-18T11:43:13.223Z,8.50
2022-08-18T11:45:24.892Z,6.85
2022-08-18T11:47:30.284Z,6.65
2022-08-18T11:49:33.928Z,6.68
2022-08-18T11:51:36.305Z,8.57
2022-08-18T11:53:58.013Z,7.55
2022-08-18T11:56:16.374Z,7.90
2022-08-18T11:58:45.117Z,7.15
2022-08-18T12:00:47.034Z,6.70
2022-08-18T12:02:49.513Z,6.82
2022-08-18T12:04:57.916Z,7.93
2022-08-18T12:07:06.642Z,7.63
2022-08-18T12:09:54.102Z,7.50
2022-08-18T12:11:55.998Z,7.82
2022-08-18T12:14:32.667Z,7.65
2022-08-18T12:16:50.751Z,10.02
2022-08-18T12:18:52.974Z,7.50
2022-08-18T12:21:02.735Z,7.05
2022-08-18T12:23:06.051Z,7.80
2022-08-18T12:25:13.349Z,8.35
2022-08-18T12:27:21.760Z,7.15
2022-08-18T12:29:32.604Z,8.55
2022-08-18T12:31:42.276Z,6.97
2022-08-18T12:33:59.881Z,8.57
2022-08-18T12:36:05.350Z,6.32
2022-08-18T12:38:13.231Z,6.95
2022-08-18T12:40:17.256Z,6.80
2022-08-18T12:42:20.405Z,6.57
2022-08-18T12:44:22.973Z,7.18
2022-08-18T12:46:30.823Z,7.43
2022-08-18T12:48:37.984Z,6.85
2022-08-18T12:50:54.159Z,7.25
2022-08-18T12:53:00.990Z,6.95
2022-08-18T12:55:04.058Z,6.80
2022-08-18T12:57:16.907Z,6.78
2022-08-18T12:59:32.564Z,6.55
2022-08-18T13:01:40.901Z,9.00
2022-08-18T13:04:10.671Z,6.35
2022-08-18T13:06:09.576Z,9.55
2022-08-18T13:08:30.318Z,7.55
2022-08-18T13:10:45.815Z,6.65
2022-08-18T13:12:49.274Z,7.65
2022-08-18T13:14:58.234Z,7.28
2022-08-18T13:17:03.770Z,7.50
2022-08-18T13:19:13.208Z,8.70
2022-08-18T13:21:18.740Z,6.65
2022-08-18T13:23:24.671Z,6.63
2022-08-18T13:25:33.300Z,6.65
2022-08-18T13:27:45.294Z,9.93
2022-08-18T13:29:56.039Z,7.32
2022-08-18T13:31:59.769Z,7.18
2022-08-18T13:34:03.808Z,7.07
2022-08-18T13:36:07.415Z,9.45
2022-08-18T13:38:18.924Z,7.00
2022-08-18T13:40:24.369Z,6.70
2022-08-18T13:42:50.624Z,6.38
2022-08-18T13:44:55.196Z,7.93
2022-08-18T13:46:59.701Z,8.95
2022-08-18T13:49:09.433Z,7.90
2022-08-18T13:51:20.526Z,6.95
2022-08-18T13:53:27.241Z,7.40
2022-08-18T13:55:29.880Z,7.13
2022-08-18T13:57:32.080Z,6.82
2022-08-18T13:59:34.732Z,7.25
2022-08-18T14:01:44.973Z,6.38
2022-08-18T14:03:53.946Z,8.02
2022-08-18T14:06:01.802Z,7.38
2022-08-18T14:08:05.614Z,7.15
2022-08-18T14:10:10.639Z,7.07
2022-08-18T14:12:28.198Z,7.47
2022-08-18T14:14:34.027Z,7.35
2022-08-18T14:16:36.807Z,7.72
2022-08-18T14:18:45.774Z,7.82
2022-08-18T14:21:06.837Z,7.90
2022-08-18T14:23:33.395Z,7.28
2022-08-18T14:25:57.611Z,7.32
2022-08-18T14:28:04.088Z,8.73
2022-08-18T14:30:10.025Z,8.32
2022-08-18T14:32:18.221Z,8.27
2022-08-18T14:34:30.522Z,6.90
2022-08-18T14:36:35.146Z,7.35
2022-08-18T14:38:38.182Z,7.20
2022-08-18T14:40:43.114Z,7.45
2022-08-18T14:42:55.093Z,6.88
2022-08-18T14:45:17.295Z,8.57
2022-08-18T14:47:24.246Z,7.50
2022-08-18T14:49:29.529Z,9.52
2022-08-18T14:51:34.890Z,6.90
2022-08-18T14:53:37.875Z,7.55
2022-08-18T14:55:39.876Z,7.80
2022-08-18T14:57:42.733Z,7.80
2022-08-18T14:59:47.821Z,6.47
2022-08-18T15:01:50.273Z,7.53
2022-08-18T15:03:55.049Z,7.95
2022-08-18T15:05:59.073Z,8.95
2022-08-18T15:08:06.964Z,7.80
2022-08-18T15:10:16.803Z,6.75
2022-08-18T15:12:24.795Z,8.25
2022-08-18T15:14:33.522Z,7.57
2022-08-18T15:16:39.786Z,8.80
2022-08-18T15:18:47.177Z,8.20
2022-08-18T15:21:35.069Z,7.78
2022-08-18T15:23:57.082Z,7.03
2022-08-18T15:26:00.846Z,8.90
2022-08-18T15:28:03.399Z,7.05
2022-08-18T15:30:13.009Z,7.70
2022-08-18T15:32:22.527Z,8.10
2022-08-18T15:34:27.421Z,9.02
2022-08-18T15:36:31.899Z,6.97
2022-08-18T15:38:37.188Z,7.18
2022-08-18T15:40:58.366Z,9.85
2022-08-18T15:43:10.113Z,6.80
2022-08-18T15:45:16.106Z,7.45
2022-08-18T15:47:21.067Z,8.85
2022-08-18T15:49:24.468Z,7.65
2022-08-18T15:51:27.499Z,6.30
2022-08-18T15:53:40.077Z,7.40
2022-08-18T15:55:50.079Z,6.40
2022-08-18T15:57:58.581Z,9.70
2022-08-18T16:00:01.513Z,7.00
2022-08-18T16:02:19.280Z,7.47
2022-08-18T16:04:21.895Z,8.52
2022-08-18T16:06:32.299Z,7.30
2022-08-18T16:08:35.166Z,7.18
2022-08-18T16:10:39.717Z,6.97
2022-08-18T16:12:45.934Z,7.13
2022-08-18T16:14:53.531Z,6.70
2022-08-18T16:17:00.219Z,9.13
2022-08-18T16:19:02.620Z,7.18
2022-08-18T16:21:13.798Z,6.80
2022-08-18T16:23:16.832Z,6.32
2022-08-18T16:25:22.630Z,6.65
2022-08-18T16:27:30.023Z,6.85
2022-08-18T16:29:33.148Z,6.82
2022-08-18T16:31:35.565Z,6.88
2022-08-18T16:33:38.732Z,7.40
2022-08-18T16:35:45.322Z,7.20
2022-08-18T16:37:50.022Z,6.75
2022-08-18T16:39:53.237Z,8.40
2022-08-18T16:41:58.835Z,7.63
2022-08-18T16:44:01.337Z,5.80
2022-08-18T16:46:09.348Z,8.52
2022-08-18T16:48:14.216Z,6.40
2022-08-18T16:50:18.659Z,6.65
2022-08-18T16:52:20.767Z,6.22
2022-08-18T16:54:22.796Z,7.15
2022-08-18T16:56:28.701Z,9.13
2022-08-18T16:58:48.989Z,6.45
2022-08-18T17:01:12.630Z,6.95
2022-08-18T17:03:39.172Z,6.50
2022-08-18T17:05:40.988Z,6.65
2022-08-18T17:07:42.834Z,6.20
2022-08-18T17:09:44.975Z,5.88
2022-08-18T17:11:51.982Z,6.07
2022-08-18T17:13:57.497Z,6.72
2022-08-18T17:15:59.330Z,6.00
2022-08-18T17:18:01.311Z,5.72
2022-08-18T17:20:06.979Z,5.85
2022-08-18T17:22:14.535Z,6.43
2022-08-18T17:24:18.555Z,6.00
2022-08-18T17:26:49.586Z,7.53
2022-08-18T17:28:56.826Z,6.65
2022-08-18T17:30:58.722Z,7.43
2022-08-18T17:33:10.777Z,6.75
2022-08-18T17:35:26.343Z,5.97
2022-08-18T17:37:31.236Z,6.10
2022-08-18T17:39:52.095Z,8.48
2022-08-18T17:42:12.551Z,8.32
2022-08-18T17:44:14.420Z,5.88
2022-08-18T17:46:28.608Z,8.27
2022-08-18T17:48:32.566Z,6.75
2022-08-18T17:51:20.959Z,7.63
2022-08-18T17:53:22.973Z,6.32
2022-08-18T17:55:30.131Z,7.00
2022-08-18T17:57:38.427Z,6.82
2022-08-18T18:00:06.167Z,6.10
2022-08-18T18:02:18.316Z,7.47
2022-08-18T18:04:30.875Z,5.93
2022-08-18T18:06:36.036Z,7.00
2022-08-18T18:08:55.528Z,5.95
2022-08-18T18:11:10.841Z,5.93
2022-08-18T18:13:24.374Z,7.13
2022-08-18T18:15:32.282Z,6.18
2022-08-18T18:17:39.697Z,5.78
2022-08-18T18:19:47.828Z,7.70
2022-08-18T18:22:04.737Z,7.22
2022-08-18T18:24:06.534Z,6.60
2022-08-18T18:26:48.540Z,7.60
2022-08-18T18:28:50.950Z,7.18
2022-08-18T18:30:53.624Z,6.53
2022-08-18T18:33:05.645Z,6.88
2022-08-18T18:35:18.755Z,6.72
2022-08-18T18:37:33.179Z,6.78
2022-08-18T18:39:36.219Z,7.47
2022-08-18T18:41:40.050Z,6.80
2022-08-18T18:43:46.635Z,6.40
2022-08-18T18:46:23.077Z,6.40
2022-08-18T18:48:45.309Z,8.30
2022-08-18T18:51:10.345Z,7.30
2022-08-18T18:53:29.165Z,6.85
2022-08-18T18:55:37.050Z,8.70
2022-08-18T18:57:54.228Z,8.57
2022-08-18T19:00:19.673Z,7.00
2022-08-18T19:02:35.203Z,6.65
2022-08-18T19:04:47.688Z,9.55
2022-08-18T19:07:26.078Z,7.25
2022-08-18T19:09:38.916Z,6.82
2022-08-18T19:11:44.520Z,6.38
2022-08-18T19:13:55.432Z,7.13
2022-08-18T19:16:03.759Z,9.75
2022-08-18T19:18:28.735Z,7.07
2022-08-18T19:20:43.301Z,7.55
2022-08-18T19:23:33.845Z,7.47
2022-08-18T19:25:45.590Z,6.63
2022-08-18T19:27:52.662Z,8.98
2022-08-18T19:29:59.632Z,7.60
2022-08-18T19:32:16.419Z,6.70
2022-08-18T19:34:30.977Z,7.65
2022-08-18T19:36:45.170Z,7.30
2022-08-18T19:39:05.331Z,10.70
2022-08-18T19:41:57.183Z,6.93
2022-08-18T19:44:05.496Z,7.22
2022-08-18T19:46:29.330Z,9.00
2022-08-18T19:49:01.532Z,9.50
2022-08-18T19:51:13.298Z,7.70
2022-08-18T19:53:45.311Z,8.52
2022-08-18T19:55:49.003Z,8.35
2022-08-18T19:58:02.948Z,10.45
2022-08-18T20:00:14.314Z,10.75
2022-08-18T20:03:00.371Z,8.50
2022-08-18T20:05:39.207Z,9.52
2022-08-18T20:08:15.558Z,9.88
2022-08-18T20:10:52.485Z,11.98
2022-08-18T20:13:15.695Z,7.93
2022-08-18T20:15:25.289Z,7.28
2022-08-18T20:17:27.574Z,10.77
2022-08-18T20:19:41.162Z,9.40
2022-08-18T20:21:47.874Z,10.80
2022-08-18T20:23:56.335Z,9.55
2022-08-18T20:25:58.427Z,7.68
2022-08-18T20:28:00.225Z,9.88
2022-08-18T20:30:08.865Z,7.80
2022-08-18T20:32:29.707Z,7.32
2022-08-18T20:34:33.873Z,7.78
2022-08-18T20:36:37.005Z,6.65
2022-08-18T20:38:46.598Z,8.05
2022-08-18T20:40:51.350Z,7.90
2022-08-18T20:43:06.940Z,8.88
2022-08-18T20:45:23.940Z,8.18
2022-08-18T20:47:42.011Z,8.30
2022-08-18T20:50:03.937Z,12.02
2022-08-18T20:52:29.148Z,8.50
2022-08-18T20:55:11.786Z,7.95
2022-08-18T20:57:15.093Z,8.18
2022-08-18T20:59:20.862Z,7.38
2022-08-18T21:01:27.403Z,7.68
2022-08-18T21:03:40.866Z,9.45
2022-08-18T21:05:45.561Z,7.95
2022-08-18T21:07:58.604Z,8.00
2022-08-18T21:10:12.671Z,8.00
2022-08-18T21:12:25.724Z,9.48
2022-08-18T21:14:30.809Z,9.18
2022-08-18T21:16:49.146Z,8.73
2022-08-18T21:19:01.148Z,9.38
2022-08-18T21:21:07.414Z,9.93
2022-08-18T21:23:12.990Z,13.48
2022-08-18T21:25:17.274Z,11.13
2022-08-18T21:27:34.240Z,10.05
2022-08-18T21:29:47.295Z,9.05
2022-08-18T21:31:52.148Z,9.63
2022-08-18T21:34:04.887Z,9.65
2022-08-18T21:36:12.250Z,7.75
2022-08-18T21:38:14.241Z,8.73
2022-08-18T21:40:17.552Z,7.45
2022-08-18T21:42:24.724Z,7.20
2022-08-18T21:44:45.475Z,7.68
2022-08-18T21:46:49.012Z,8.63
2022-08-18T21:48:53.858Z,9.02
2022-08-18T21:51:01.362Z,7.15
2022-08-18T21:53:16.552Z,9.32
2022-08-18T21:55:42.446Z,7.60
2022-08-18T21:57:47.750Z,7.93
2022-08-18T22:00:13.793Z,8.13
2022-08-18T22:02:25.141Z,13.43
2022-08-18T22:04:36.191Z,10.82
2022-08-18T22:06:41.188Z,8.60
2022-08-18T22:09:28.169Z,8.98
2022-08-18T22:12:01.440Z,9.25
2022-08-18T22:14:36.058Z,8.93
2022-08-18T22:17:27.851Z,10.95
2022-08-18T22:19:32.584Z,10.77
2022-08-18T22:21:41.803Z,10.25
2022-08-18T22:24:05.371Z,8.95
2022-08-18T22:26:13.134Z,10.57
2022-08-18T22:28:22.459Z,9.48
2022-08-18T22:30:25.071Z,11.07
2022-08-18T22:32:27.663Z,8.82
2022-08-18T22:34:33.323Z,9.70
2022-08-18T22:36:41.395Z,8.77
2022-08-18T22:38:44.828Z,14.02
2022-08-18T22:40:50.351Z,9.55
2022-08-18T22:42:52.708Z,9.48
2022-08-18T22:44:57.992Z,8.75
2022-08-18T22:47:04.796Z,8.07
2022-08-18T22:49:07.006Z,10.07
2022-08-18T22:51:09.927Z,10.88
2022-08-18T22:53:17.885Z,10.38
2022-08-18T22:55:23.962Z,9.77
2022-08-18T22:57:26.575Z,10.50
2022-08-18T22:59:29.801Z,8.75
2022-08-18T23:01:35.025Z,10.00
2022-08-18T23:03:42.111Z,9.32
2022-08-18T23:05:45.022Z,8.38
2022-08-18T23:07:47.452Z,8.48
2022-08-18T23:09:49.794Z,10.63
2022-08-18T23:11:54.773Z,9.25
2022-08-18T23:13:57.887Z,8.82
2022-08-18T23:16:30.268Z,10.43
2022-08-18T23:18:23.215Z,9.23
2022-08-18T23:20:26.858Z,8.85
2022-08-18T23:22:29.412Z,8.88
2022-08-18T23:24:31.987Z,8.57
2022-08-18T23:26:37.500Z,10.32
2022-08-18T23:28:52.530Z,9.38
2022-08-18T23:30:57.030Z,8.80
2022-08-18T23:33:01.941Z,8.98
2022-08-18T23:35:05.221Z,8.02
2022-08-18T23:37:10.561Z,8.68
2022-08-18T23:39:16.085Z,10.13
2022-08-18T23:41:18.380Z,8.70
2022-08-18T23:43:21.022Z,8.63
2022-08-18T23:45:23.661Z,7.63
2022-08-18T23:47:25.816Z,8.00
2022-08-18T23:49:31.292Z,8.68
2022-08-18T23:51:46.754Z,7.70
2022-08-18T23:53:52.444Z,7.88
2022-08-18T23:55:54.733Z,12.13
2022-08-18T23:57:56.836Z,7.57
2022-08-18T23:59:59.146Z,9.77
